createdAt,value
2022-11-25T00:06:46.738Z,100
2022-11-25T00:16:23.669Z,100
2022-11-25T00:35:36.480Z,100
2022-11-25T00:54:50.293Z,100
2022-11-25T01:04:27.401Z,100
2022-11-25T01:14:03.827Z,100
2022-11-25T01:23:40.596Z,100
2022-11-25T01:33:17.430Z,100
2022-11-25T01:42:54.178Z,100
2022-11-25T02:02:07.159Z,100
2022-11-25T02:11:43.102Z,100
2022-11-25T02:21:20.060Z,100
2022-11-25T02:30:56.498Z,100
2022-11-25T02:40:33.030Z,100
2022-11-25T02:50:09.182Z,100
2022-11-25T02:59:45.365Z,100
2022-11-25T03:09:22.259Z,100
2022-11-25T03:18:59.187Z,100
2022-11-25T03:28:36.254Z,100
2022-11-25T03:38:13.167Z,100
2022-11-25T03:47:49.820Z,100
2022-11-25T03:57:26.752Z,100
2022-11-25T04:07:03.603Z,100
2022-11-25T04:16:40.049Z,100
2022-11-25T04:26:16.182Z,100
2022-11-25T04:35:53.182Z,100
2022-11-25T04:45:36.898Z,100
2022-11-25T04:55:06.417Z,100
2022-11-25T05:04:42.656Z,100
2022-11-25T05:14:19.207Z,100
2022-11-25T05:23:56.364Z,100
2022-11-25T05:43:09.329Z,100
2022-11-25T05:52:45.805Z,100
2022-11-25T06:02:22.785Z,100
2022-11-25T06:11:59.402Z,100
2022-11-25T06:40:49.150Z,100
2022-11-25T06:50:25.864Z,100
2022-11-25T07:00:02.592Z,100
2022-11-25T07:09:39.532Z,100
2022-11-25T07:19:16.585Z,100
2022-11-25T07:28:53.536Z,100
2022-11-25T07:38:30.541Z,100
2022-11-25T07:48:08.024Z,100
2022-11-25T07:57:45.660Z,100
2022-11-25T08:07:23.515Z,100
2022-11-25T08:17:00.680Z,100
2022-11-25T08:26:38.444Z,100
2022-11-25T08:36:15.805Z,100
2022-11-25T08:45:53.569Z,100
2022-11-25T08:55:31.245Z,100
2022-11-25T09:14:47.579Z,100
2022-11-25T09:24:25.158Z,100
2022-11-25T09:34:02.274Z,100
2022-11-25T09:43:39.709Z,100
2022-11-25T09:53:17.034Z,100
2022-11-25T10:02:54.799Z,100
2022-11-25T10:22:10.116Z,99.81
2022-11-25T10:31:46.729Z,97.83
2022-11-25T10:41:23.266Z,97.56
2022-11-25T10:51:01.082Z,95.26
2022-11-25T11:00:40.596Z,92.75
2022-11-25T11:10:19.916Z,89.73
2022-11-25T11:19:56.570Z,88.78
2022-11-25T11:29:32.650Z,85.19
2022-11-25T11:48:53.028Z,83.76
2022-11-25T11:58:25.085Z,84.47
2022-11-25T12:08:01.671Z,84.58
2022-11-25T12:36:52.375Z,88.14
2022-11-25T12:46:29.734Z,84.78
2022-11-25T12:56:07.414Z,82.86
2022-11-25T13:05:44.571Z,83.97
2022-11-25T13:15:21.510Z,84.86
2022-11-25T13:24:57.178Z,89.63
2022-11-25T13:34:33.931Z,90.89
2022-11-25T13:44:10.744Z,93.45
2022-11-25T14:03:24.146Z,100
2022-11-25T14:13:00.960Z,100
2022-11-25T14:22:37.723Z,100
2022-11-25T14:32:14.289Z,100
2022-11-25T14:41:51.038Z,100
2022-11-25T14:51:27.881Z,100
2022-11-25T15:10:41.615Z,100
2022-11-25T15:20:19.114Z,100
2022-11-25T15:29:56.123Z,100
2022-11-25T15:39:33.013Z,100
2022-11-25T15:49:09.854Z,100
2022-11-25T15:58:46.835Z,100
2022-11-25T16:08:23.401Z,100
2022-11-25T16:18:17.839Z,100
2022-11-25T16:27:36.396Z,100
2022-11-25T16:37:13.254Z,100
2022-11-25T16:46:50.036Z,100
2022-11-25T16:56:25.787Z,100
2022-11-25T17:15:39.183Z,100
2022-11-25T17:34:51.824Z,100
2022-11-25T17:44:28.144Z,100
2022-11-25T17:54:05.021Z,100
2022-11-25T18:03:42.127Z,100
2022-11-25T18:13:19.249Z,100
2022-11-25T18:22:56.192Z,100
2022-11-25T18:32:33.001Z,100
2022-11-25T18:51:46.904Z,100
2022-11-25T19:01:24.014Z,100
2022-11-25T19:11:01.075Z,100
2022-11-25T19:20:37.663Z,100
2022-11-25T19:30:14.426Z,100
2022-11-25T19:39:51.173Z,100
2022-11-25T19:49:27.526Z,100
2022-11-25T19:59:04.485Z,100
2022-11-25T20:18:18.616Z,100
2022-11-25T20:27:55.520Z,100
2022-11-25T20:37:32.623Z,100
2022-11-25T20:56:46.176Z,100
2022-11-25T21:06:23.389Z,100
2022-11-25T21:15:59.815Z,100
2022-11-25T21:25:36.505Z,100
2022-11-25T21:35:12.881Z,100
2022-11-25T21:44:49.548Z,100
2022-11-25T21:54:26.602Z,100
2022-11-25T22:13:41.183Z,100
2022-11-25T22:23:18.308Z,100
2022-11-25T22:32:55.339Z,100
2022-11-25T22:42:32.175Z,100
2022-11-25T22:52:09.343Z,100
2022-11-25T23:01:46.228Z,100
2022-11-25T23:11:22.812Z,100
2022-11-25T23:21:00.175Z,100
2022-11-25T23:30:37.501Z,100
2022-11-25T23:40:14.557Z,100
2022-11-25T23:49:51.692Z,100
2022-11-25T23:59:31.045Z,100
